Terminal Aerodrome Forecast
Issued by NWS Pueblo, CO

Home | Current Version | Previous Version | Text Only | Print | Product List | Glossary On
Versions: 1 2 3 4 5 6 7 8 9 10 11 12 13 14 15 16 17 18 19 20 21 22 23 24 25 26
090
FTUS45 KPUB 200109 AAA
TAFCOS
TAF AMD
KCOS 200109Z 2001/2024 13008KT P6SM OVC250
     FM200500 02007KT P6SM BKN250
     FM201700 24012G22KT P6SM FEW100 SCT250
     FM202000 22020G30KT P6SM FEW110 SCT250=

USA.gov is the U.S. government's official web portal to all federal, state and local government web resources and services.